x

Lake Winnipeg S. Basin (45140) Wave Buoy

6:00pm - Mon 28th Jul 2014 All times are UTC.

  • Sig Wave height 0.7ft
  • Peak Period 4s
  • Wind
    7mph, 9mph gusts
  • Sea Temp 69°f
  • Air Temp 69°f
  • Sea Pressure 1023.8mb

More Historic Weather Station data

Upgrade to MSW Pro to gain access to the past 30 days of data for over 8000 Wavebouys and Weather Stations around the globe.

Join Pro

Comparision Forecast

View Surf forecast
   
Mon 07/28 6:00pm 0.7ft 4s 7 9 mph 1023.8mb 69f 69f
5:00pm 0.7ft 2s 9 11 mph 1024.2mb 69f 67f
4:00pm 1ft 4s 7 9 mph 1024.6mb 69f 65f
3:00pm 1ft 3s 9
mph
1024.7mb 68f 63f
2:00pm 1.3ft 3s 9 11 mph 1024.6mb 68f 62f
1:00pm 1.3ft 3s 11 13 mph 1024.5mb 68f 62f
12:00pm 1.3ft 3s 13 16 mph 1024.2mb 68f 61f
11:00am 1.3ft 3s 11 13 mph 1023.8mb 68f 62f
10:00am 1.3ft 3s 11 13 mph 1023.4mb 68f 64f
9:00am 1.6ft 2s 11 13 mph 1023.2mb 68f 65f
8:00am 1.6ft 3s 13 16 mph 1023.2mb 68f 65f
7:00am 2ft 3s 16 18 mph 1022.9mb 68f 66f
6:00am 2ft 3s 16 18 mph 1022.8mb 68f 65f
5:00am 1.6ft 3s 18 20 mph 1022.8mb 68f 65f
4:00am 1.6ft 3s 16 18 mph 1022.8mb 69f 66f
3:00am 1.3ft 3s 16 18 mph 1022.5mb 69f 68f
2:00am 1.3ft 3s 11 13 mph 1022.3mb 69f 68f
1:00am 1.6ft 3s 11 13 mph 1022mb 69f 68f
12:00am 1.6ft 3s 16 18 mph 1022mb 69f 68f
Sun 07/27 11:00pm  -   -  16
mph
1021.9mb - 68f
10:00pm 1.6ft 3s 13 16 mph 1022.1mb 69f 68f
9:00pm 1.6ft 3s 13 18 mph 1022mb 69f 68f
8:00pm 1.6ft 3s 16 20 mph 1021.8mb 69f 68f
7:00pm 2ft 3s 13 18 mph 1021.8mb 68f 67f
6:00pm 1.6ft 3s 16 20 mph 1021.5mb 68f 66f
5:00pm 2ft 4s 16 18 mph 1021.3mb 68f 65f
4:00pm 2.5ft 4s 13 16 mph 1021mb 68f 64f
3:00pm 2.5ft 4s 16 18 mph 1020.4mb 68f 63f
2:00pm 3.5ft 4s 18 22 mph 1019.8mb 68f 62f
1:00pm 3.5ft 4s 22 27 mph 1018.7mb 68f 62f
12:00pm 3.5ft 4s 22 29 mph 1017.5mb 68f 62f
11:00am 3ft 4s 22 27 mph 1016.4mb 68f 61f
10:00am 3ft 4s 20 25 mph 1015.5mb 68f 62f
9:00am 3ft 4s 22 29 mph 1014.8mb 68f 62f
8:00am 3.5ft 4s 22 29 mph 1013.9mb 68f 63f
7:00am 3.5ft 4s 22 29 mph 1013mb 68f 63f
6:00am  -   -  22
mph
1011.8mb - 62f
5:00am 3.5ft 5s 22 29 mph 1010.9mb 69f 62f
4:00am 3.5ft 4s 25 31 mph 1009.8mb 69f 63f
3:00am 3.5ft 4s 22 29 mph 1008.5mb 69f 64f
2:00am 3ft 4s 25 31 mph 1007.1mb 69f 65f
1:00am 2ft 3s 20 25 mph 1005.9mb 69f 65f
12:00am 1ft 2s 7 22 mph 1005mb 69f 69f
Sat 07/26 11:00pm 1ft 2s 4 9 mph 1004.2mb 69f 70f
10:00pm 1.3ft 3s 7 9 mph 1004.2mb 69f 70f
9:00pm 1.6ft 3s 13 16 mph 1003.3mb 69f 69f
8:00pm 1.6ft 3s 13 16 mph 1003.5mb 69f 69f
7:00pm 1.3ft 3s 13 18 mph 1003.8mb 69f 69f
6:00pm 1.3ft 3s 13 16 mph 1003.5mb 69f 69f
5:00pm 1.3ft 3s 13
mph
1003.4mb 69f 67f
4:00pm 1.6ft 3s 11 13 mph 1003.2mb 69f 67f
3:00pm 1.6ft 3s 13 16 mph 1003.5mb 69f 67f
2:00pm 1ft 3s 13 16 mph 1003.7mb 69f 68f
1:00pm 0.7ft 2s 13 16 mph 1003.8mb 69f 67f
12:00pm 1ft 2s 9 13 mph 1004.4mb 69f 68f
11:00am 1ft 2s 4 7 mph 1004.8mb 69f 68f
10:00am 1ft 2s 9 11 mph 1004.8mb 69f 68f
9:00am 1ft 2s 11 13 mph 1004.8mb 69f 68f
8:00am 1ft 2s 9
mph
1004.5mb 69f 69f
7:00am 0.7ft 2s 11 13 mph 1004.7mb 69f 69f
6:00am 0.7ft 2s 9 11 mph 1004.8mb 69f 69f
5:00am 0.7ft 2s 9
mph
1004.9mb 69f 69f
4:00am 0.7ft 2s 9 11 mph 1004.9mb 69f 70f
3:00am 0.7ft 2s 7
mph
1004.5mb 69f 71f
2:00am 1ft 2s 9
mph
1004.1mb 69f 72f
1:00am 1ft 2s 7 9 mph 1004mb 70f 73f
12:00am 1ft 2s 9 11 mph 1003.9mb 70f 73f
Fri 07/25 11:00pm 1ft 2s 9 11 mph 1003.9mb 70f 73f
10:00pm 0.7ft 6s 9
mph
1003.8mb 70f 72f
9:00pm 1ft 3s 9
mph
1003.8mb 69f 71f
8:00pm 1ft 2s 4 7 mph 1004mb 69f 71f
7:00pm 1ft 3s 9 11 mph 1004.4mb 69f 72f
6:00pm 1ft 2s 9 11 mph 1004.8mb 69f 71f
5:00pm 1ft 3s 11 13 mph 1005mb 69f 70f
4:00pm 1.3ft 3s 9 11 mph 1005.7mb 69f 69f
3:00pm 1.3ft 3s 11 13 mph 1006mb 69f 68f
2:00pm 1.3ft 3s 13
mph
1006.8mb 69f 67f
1:00pm 1.3ft 3s 11 13 mph 1006.9mb 69f 67f
12:00pm 1.6ft 3s 9 11 mph 1006.9mb 69f 67f
11:00am 1.3ft 3s 11 13 mph 1006.9mb 69f 67f
10:00am 1.3ft 3s 13 18 mph 1006.4mb 69f 67f
9:00am 1.3ft 2s 16 20 mph 1006.4mb 69f 68f
8:00am 1ft 2s 13 16 mph 1007.8mb 70f 69f
7:00am 1ft 2s 11
mph
1009.6mb 70f 69f
6:00am 1ft 2s 11 13 mph 1010.1mb 70f 70f
5:00am 0.7ft 2s 9 11 mph 1010mb 70f 70f
4:00am 0.7ft 2s 9
mph
1010.2mb 70f 71f
3:00am 0.7ft 2s 9 11 mph 1008.7mb 71f 71f
2:00am 0.7ft 2s 4
mph
1009.6mb 71f 71f
1:00am 0.7ft 2s 4
mph
1010.9mb 71f 72f
12:00am 0.7ft 2s 4
mph
1011.9mb 71f 73f
Thu 07/24 11:00pm 0.7ft 4s 2
mph
1012.1mb 71f 73f
10:00pm 0.7ft 5s 7
mph
1012.4mb 70f 72f
9:00pm 1ft 2s 7 9 mph 1013.1mb 70f 72f
8:00pm 1ft 3s 9 11 mph 1013mb 70f 71f